• Join FlightAware (Why Join?)
  • Login
  • US Flag 
09:53AM EDT


 

Airport Tracker/Info


-or-


 

Live Flight TrackerFlight Track Log ✈ JBU1505 ✈ 05-May-2013 ✈ KJFK - KABQ

Flight Track Log - Related Links

Times and Time Zones

All times are in EDT time to prevent confusion due to time zone crossing. See the JBU1505 flight status page for this flight to view local times or setup timezone preferences in your user account.

Time Position Orientation Groundspeed Altitude Reporting Facility
EDT Latitude Longitude Course Direction KTS MPH feet Rate Location/Type
08:49PM 40.5833 -73.8000 270° West 225 259 2,900  Level New York TRACON
08:50PM 40.5167 -73.8500 210° Southwest 238 274 7,000 3,420 Climbing New York TRACON
08:51PM 40.4179 -74.1232 229° Southwest  Level FlightAware Approximate
08:51PM 40.4667 -73.9167 225° Southwest 253 291 10,200  Level New York TRACON
08:52PM 40.3423 -74.2407 232° Southwest  Level FlightAware Approximate
08:52PM 40.4333 -74.0000 242° Southwest 299 344 11,800  Level New York TRACON
08:53PM 40.2698 -74.3615 232° Southwest  Level FlightAware Approximate
08:53PM 40.3833 -74.1000 237° Southwest 362 417 13,500  Level New York TRACON
08:54PM 40.2000 -74.4761 270° West  Level FlightAware Approximate
08:54PM 40.3544 -74.1619 239° Southwest 374 430 15,100  Level New York Center
08:55PM 40.3008 -74.2844 240° Southwest 388 447 16,900 900 Climbing New York Center
08:56PM 40.2514 -74.4069 242° Southwest 388 447 17,000  Climbing New York Center
08:57PM 40.2369 -74.5311 261° West 388 447 16,900 600 Descending New York Center
08:58PM 40.2219 -74.6717 262° West 393 452 18,200 1,680 Climbing New York Center
08:59PM 40.2103 -74.8342 265° West 398 458 20,400 1,860 Climbing New York Center
09:00PM 40.1972 -74.9694 263° West 408 470 22,000 1,500 Climbing New York Center
09:01PM 40.1811 -75.1286 263° West 428 493 23,400 1,560 Climbing New York Center
09:02PM 40.1644 -75.2906 262° West 441 507 25,200 1,260 Climbing New York Center
09:03PM 40.1497 -75.4525 263° West 452 520 26,000 360 Climbing New York Center
09:04PM 40.1350 -75.6144 263° West 452 520 26,000 660 Level New York Center
09:05PM 40.1178 -75.7789 262° West 457 526 27,300 1,440 Climbing New York Center
09:06PM 40.1003 -75.9406 262° West 462 532 28,900 840 Climbing New York Center
09:07PM 40.0869 -76.1022 264° West 462 532 29,000 180 Climbing New York Center
09:08PM 40.0647 -76.2633 260° West 462 532 29,300 720 Climbing New York Center
09:09PM 40.0611 -76.4286 268° West 462 532 30,500 1,560 Climbing New York Center
09:10PM 40.0658 -76.5892 272° West 456 525 32,400 1,740 Climbing New York Center
09:11PM 40.0683 -76.7467 271° West 451 519 34,000 1,200 Climbing New York Center
09:12PM 40.0708 -76.9042 271° West 446 513 34,900 840 Climbing New York Center
09:13PM 40.0731 -77.0617 271° West 441 507 35,800 540 Climbing New York Center
09:14PM 40.0747 -77.2194 271° West 441 507 36,000 60 Climbing New York Center
09:15PM 40.0797 -77.5006 271° West 410 472 36,000  Level Cleveland Center
09:16PM 40.0817 -77.6553 271° West 416 479 36,000  Level Cleveland Center
09:17PM 40.0833 -77.8097 271° West 428 493 36,000  Level Cleveland Center
09:18PM 40.0806 -77.9511 269° West 435 501 36,000  Level Cleveland Center
09:19PM 40.0819 -78.1083 271° West 435 501 36,000  Level Cleveland Center
09:20PM 40.0811 -78.2658 270° West 440 506 36,100  Climbing Cleveland Center
09:21PM 40.0819 -78.4206 270° West 440 506 36,000 -60 Descending Cleveland Center
09:22PM 40.0808 -78.5806 270° West 440 506 36,000  Level Cleveland Center
09:23PM 40.0814 -78.7353 270° West 440 506 36,000  Level Cleveland Center
09:24PM 40.0817 -78.8900 270° West 440 506 36,000  Level Cleveland Center
09:25PM 40.0797 -79.0472 269° West 440 506 36,000  Level Cleveland Center
09:26PM 40.0797 -79.2047 270° West 440 506 36,000  Level Cleveland Center
09:27PM 40.0814 -79.3619 271° West 440 506 36,000  Level Cleveland Center
09:28PM 40.0811 -79.5250 270° West 440 506 36,000  Level Cleveland Center
09:29PM 40.0783 -79.6822 269° West 440 506 36,000  Level Cleveland Center
09:30PM 40.0753 -79.8425 269° West 440 506 36,000  Level Cleveland Center
09:31PM 40.0742 -80.0025 270° West 440 506 36,000  Level Cleveland Center
09:32PM 40.0728 -80.1681 269° West 440 506 36,000  Level Cleveland Center
09:33PM 40.0689 -80.3308 268° West 445 512 36,000  Level Cleveland Center
09:34PM 40.0672 -80.4936 269° West 445 512 36,000  Level Cleveland Center
09:35PM 40.0650 -80.6589 269° West 451 519 36,000  Level Cleveland Center
09:36PM 40.0606 -80.8244 268° West 461 531 36,000  Level Cleveland Center
09:37PM 40.0581 -80.9844 269° West 456 525 36,000  Level Cleveland Center
09:38PM 40.0519 -81.1517 267° West 451 519 36,000  Level Indianapolis Center
09:39PM 40.0483 -81.3183 268° West 453 521 36,000  Level Indianapolis Center
09:40PM 40.0433 -81.4881 268° West 460 529 36,000  Level Indianapolis Center
09:41PM 40.0389 -81.6567 268° West 459 528 36,000  Level Indianapolis Center
09:42PM 40.0344 -81.8219 268° West 461 531 36,000  Level Indianapolis Center
09:43PM 40.0303 -81.9897 268° West 457 526 36,000 -60 Level Indianapolis Center
09:44PM 40.0250 -82.1567 268° West 456 525 35,900 -60 Descending Indianapolis Center
09:45PM 40.0189 -82.3247 267° West 460 529 35,900  Level Indianapolis Center
09:46PM 40.0139 -82.4936 268° West 463 533 36,000  Climbing Indianapolis Center
09:47PM 40.0078 -82.6633 267° West 464 534 36,000  Level Indianapolis Center
09:48PM 40.0017 -82.8342 267° West 467 537 36,000  Level Indianapolis Center
09:49PM 39.9936 -83.0331 267° West 468 539 36,000 -60 Level Indianapolis Center
09:50PM 39.9869 -83.2019 267° West 467 537 35,900 -60 Descending Indianapolis Center
09:52PM 39.9800 -83.3714 267° West 469 540 35,900  Level Indianapolis Center
09:53PM 39.9728 -83.5394 267° West 472 543 36,000  Climbing Indianapolis Center
09:54PM 39.9653 -83.7089 267° West 473 544 36,000  Level Indianapolis Center
09:55PM 39.9569 -83.8792 266° West 473 544 36,000  Level Indianapolis Center
09:56PM 39.9489 -84.0514 267° West 473 544 36,000 -60 Level Indianapolis Center
09:57PM 39.9406 -84.2242 266° West 476 548 35,900  Descending Indianapolis Center
09:58PM 39.9325 -84.3978 267° West 478 550 36,000  Climbing Indianapolis Center
09:59PM 39.9233 -84.5728 266° West 480 552 36,000  Level Indianapolis Center
10:00PM 39.9131 -84.7486 266° West 483 556 36,000  Level Indianapolis Center
10:01PM 39.9017 -84.9556 266° West 485 558 36,000  Level Indianapolis Center
10:02PM 39.8919 -85.1317 266° West 489 563 36,000  Level Indianapolis Center
10:03PM 39.8819 -85.3061 266° West 487 560 36,000  Level Indianapolis Center
10:04PM 39.8725 -85.4814 266° West 488 562 36,000  Level Indianapolis Center
10:05PM 39.8608 -85.6558 265° West 488 562 36,000  Level Indianapolis Center
10:06PM 39.8503 -85.8322 266° West 490 564 36,000  Level Indianapolis Center
10:07PM 39.8386 -86.0083 265° West 492 566 36,000  Level Indianapolis Center
10:08PM 39.8256 -86.1825 264° West 492 566 36,000  Level Indianapolis Center
10:09PM 39.7967 -86.3683 259° West 487 560 36,000  Level Indianapolis Center
10:10PM 39.7742 -86.5500 261° West 487 560 36,000  Level Indianapolis Center
10:11PM 39.7511 -86.7228 260° West 489 563 36,000  Level Indianapolis Center
10:12PM 39.7281 -86.8961 260° West 489 563 36,000  Level Indianapolis Center
10:13PM 39.7042 -87.0672 260° West 485 558 36,000  Level Indianapolis Center
10:14PM 39.6811 -87.2414 260° West 491 565 36,000  Level Indianapolis Center
10:15PM 39.6572 -87.4136 260° West 487 560 36,000  Level Indianapolis Center
10:16PM 39.6325 -87.5875 260° West 490 564 36,000  Level Indianapolis Center
10:17PM 39.6028 -87.7961 260° West 493 567 36,000  Level Indianapolis Center
10:18PM 39.5786 -87.9689 260° West 492 566 36,000  Level Indianapolis Center
10:19PM 39.5678 -88.0381 259° West 492 566 36,000  Level Kansas City Center
10:20PM 39.5428 -88.2119 259° West 492 566 36,000  Level Kansas City Center
10:21PM 39.5114 -88.4208 259° West 492 566 36,000  Level Kansas City Center
10:22PM 39.4856 -88.5928 259° West 491 565 36,000  Level Kansas City Center
10:23PM 39.4586 -88.7706 259° West 494 568 36,000  Level Kansas City Center
10:24PM 39.4314 -88.9411 258° West 488 562 36,000  Level Kansas City Center
10:25PM 39.4047 -89.1175 259° West 485 558 36,000  Level Kansas City Center
10:26PM 39.3769 -89.2881 258° West 486 559 36,000  Level Kansas City Center
10:27PM 39.3508 -89.4586 259° West 486 559 36,000  Level Kansas City Center
10:28PM 39.3236 -89.6297 258° West 489 563 36,000  Level Kansas City Center
10:29PM 39.2958 -89.8003 258° West 488 562 36,000  Level Kansas City Center
10:30PM 39.2689 -89.9706 258° West 488 562 36,000  Level Kansas City Center
10:31PM 39.2414 -90.1392 258° West 487 560 36,000  Level Kansas City Center
10:32PM 39.2128 -90.3083 258° West 487 560 36,000  Level Kansas City Center
10:33PM 39.1797 -90.5100 258° West 485 558 36,000  Level Kansas City Center
10:34PM 39.1514 -90.6767 258° West 483 556 36,000  Level Kansas City Center
10:35PM 39.1239 -90.8394 258° West 476 548 36,000  Level Kansas City Center
10:36PM 39.0950 -91.0069 258° West 481 554 36,000  Level Kansas City Center
10:37PM 39.0667 -91.1725 258° West 480 552 36,000  Level Kansas City Center
10:38PM 39.0378 -91.3369 257° West 476 548 36,000  Level Kansas City Center
10:39PM 39.0089 -91.5014 257° West 475 547 36,000  Level Kansas City Center
10:40PM 38.9794 -91.6653 257° West 474 545 36,000  Level Kansas City Center
10:41PM 38.9467 -91.8436 257° West 468 539 36,000  Level Kansas City Center
10:42PM 38.9178 -92.0056 257° West 466 536 36,000 360 Level Kansas City Center
10:43PM 38.8875 -92.1656 256° West 463 533 36,800 960 Climbing Kansas City Center
10:44PM 38.8592 -92.3172 257° West 447 514 38,000 540 Climbing Kansas City Center
10:45PM 38.8311 -92.4700 257° West 441 507 38,000  Level Kansas City Center
10:46PM 38.7958 -92.6525 256° West 440 506 38,000  Level Kansas City Center
10:47PM 38.7658 -92.8069 256° West 444 511 38,000  Level Kansas City Center
10:48PM 38.7364 -92.9625 256° West 447 514 38,100  Climbing Kansas City Center
10:49PM 38.7064 -93.1169 256° West 449 517 38,100 -60 Level Kansas City Center
10:50PM 38.6756 -93.2722 256° West 450 518 38,000 -60 Descending Kansas City Center
10:51PM 38.6467 -93.4242 256° West 445 512 38,000  Level Kansas City Center
10:52PM 38.6158 -93.5750 255° West 441 507 38,000  Level Kansas City Center
10:53PM 38.5864 -93.7256 256° West 437 503 38,000  Level Kansas City Center
10:54PM 38.5564 -93.8908 257° West 435 501 38,000  Level Kansas City Center
10:55PM 38.5269 -94.0333 255° West 434 499 38,000  Level Kansas City Center
10:56PM 38.4967 -94.1811 255° West 444 511 38,000  Level Kansas City Center
10:57PM 38.4611 -94.3508 255° West 443 510 38,000  Level Kansas City Center
10:58PM 38.4314 -94.4972 256° West 445 512 38,000  Level Kansas City Center
10:59PM 38.4008 -94.6425 255° West 444 511 38,000  Level Kansas City Center
11:00PM 38.3653 -94.8097 255° West 438 504 38,000  Level Kansas City Center
11:01PM 38.3350 -94.9528 255° West 436 502 38,000  Level Kansas City Center
11:02PM 38.3042 -95.0925 254° West 431 496 38,000 -60 Level Kansas City Center
11:03PM 38.2703 -95.2564 255° West 429 494 37,900  Descending Kansas City Center
11:04PM 38.2403 -95.3972 255° West 429 494 38,000  Climbing Kansas City Center
11:05PM 38.2097 -95.5389 255° West 431 496 38,000  Level Kansas City Center
11:06PM 38.1747 -95.6983 254° West 420 483 38,000  Level Kansas City Center
11:07PM 38.1450 -95.8364 255° West 422 486 38,000  Level Kansas City Center
11:08PM 38.1161 -95.9717 255° West 416 479 38,000  Level Kansas City Center
11:09PM 38.0806 -96.1297 254° West 421 484 38,000  Level Kansas City Center
11:10PM 38.0475 -96.2731 254° West 424 488 38,000  Level Kansas City Center
11:11PM 38.0158 -96.4189 255° West 429 494 38,000  Level Kansas City Center
11:12PM 37.9819 -96.5658 254° West 432 497 38,000  Level Kansas City Center
11:13PM 37.9486 -96.7131 254° West 434 499 38,000  Level Kansas City Center
11:14PM 37.9147 -96.8592 254° West 433 498 38,000  Level Kansas City Center
11:16PM 37.8814 -97.0064 254° West 434 499 38,000  Level Kansas City Center
11:17PM 37.8469 -97.1528 253° West 434 499 38,000  Level Kansas City Center
11:18PM 37.8122 -97.2992 253° West 433 498 38,000  Level Kansas City Center
11:19PM 37.7772 -97.4436 253° West 429 494 38,000  Level Kansas City Center
11:20PM 37.7428 -97.5883 253° West 426 490 38,000  Level Kansas City Center
11:21PM 37.7158 -97.7325 257° West 418 481 38,000  Level Kansas City Center
11:22PM 37.6872 -97.8769 256° West 417 480 38,000  Level Kansas City Center
11:23PM 37.6606 -98.0214 257° West 418 481 38,000  Level Kansas City Center
11:24PM 37.6336 -98.1633 257° West 412 474 38,000  Level Kansas City Center
11:25PM 37.6044 -98.3064 256° West 418 481 38,000  Level Kansas City Center
11:26PM 37.5769 -98.4494 256° West 418 481 38,000  Level Kansas City Center
11:27PM 37.5478 -98.5931 256° West 422 486 38,000  Level Kansas City Center
11:28PM 37.5192 -98.7364 256° West 422 486 38,000  Level Kansas City Center
11:29PM 37.4831 -98.9072 255° West 421 484 38,000  Level Kansas City Center
11:30PM 37.4528 -99.0511 255° West 424 488 38,000  Level Kansas City Center
11:31PM 37.4247 -99.1953 256° West 424 488 38,000  Level Kansas City Center
11:32PM 37.3939 -99.3400 255° West 427 491 38,000  Level Kansas City Center
11:33PM 37.3658 -99.4747 255° West 427 491 38,000  Level Kansas City Center
11:34PM 37.3325 -99.6350 255° West 425 489 38,000  Level Kansas City Center
11:35PM 37.3039 -99.7725 255° West 426 490 38,000  Level Kansas City Center
11:36PM 37.2750 -99.9089 255° West 424 488 38,000  Level Kansas City Center
11:37PM 37.2406 -100.0703 255° West 426 490 38,000  Level Kansas City Center
11:38PM 37.2114 -100.2064 255° West 423 487 38,000  Level Kansas City Center
11:39PM 37.1828 -100.3419 255° West 420 483 38,000  Level Kansas City Center
11:40PM 37.1489 -100.4958 255° West 412 474 38,000  Level Kansas City Center
11:41PM 37.1197 -100.6286 255° West 410 472 38,000  Level Kansas City Center
11:42PM 37.0914 -100.7611 255° West 409 471 38,000  Level Kansas City Center
11:43PM 37.0564 -100.9153 254° West 411 473 38,000  Level Kansas City Center
11:44PM 37.0219 -101.0472 252° West 413 475 38,000  Level Kansas City Center
11:45PM 36.9806 -101.1767 248° West 417 480 38,100  Climbing Kansas City Center
11:46PM 36.9342 -101.3264 249° West 414 476 38,000 -60 Descending Kansas City Center
11:47PM 36.8939 -101.4522 248° West 410 472 38,000  Level Kansas City Center
11:48PM 36.8544 -101.5786 249° West 409 471 38,000  Level Kansas City Center
11:49PM 36.8008 -101.7453 248° West 406 467 38,000  Level Albuquerque Center
11:50PM 36.7603 -101.8714 248° West 408 470 38,000  Level Albuquerque Center
11:51PM 36.7206 -101.9958 248° West 406 467 38,000  Level Albuquerque Center
11:52PM 36.6747 -102.1408 249° West 403 464 38,000  Level Albuquerque Center
11:53PM 36.6300 -102.2767 248° West 399 459 38,000  Level Albuquerque Center
11:54PM 36.5883 -102.4042 248° West 399 459 38,000  Level Albuquerque Center
11:55PM 36.5461 -102.5356 248° West 407 468 38,000  Level Albuquerque Center
11:56PM 36.5028 -102.6681 248° West 413 475 38,100  Climbing Albuquerque Center
11:57PM 36.4597 -102.7989 248° West 412 474 38,100 -60 Level Albuquerque Center
11:58PM 36.4122 -102.9456 248° West 408 470 38,000 -60 Descending Albuquerque Center
11:59PM 36.3692 -103.0758 248° West 407 468 38,000  Level Albuquerque Center
12:00AM 36.3244 -103.2047 247° West 405 466 38,000  Level Albuquerque Center
12:01AM 36.2833 -103.3344 249° West 404 465 38,000  Level Albuquerque Center
12:02AM 36.2397 -103.4606 247° West 399 459 38,000  Level Albuquerque Center
12:03AM 36.1975 -103.5856 247° West 392 451 38,000  Level Albuquerque Center
12:04AM 36.1544 -103.7136 247° West 397 457 38,000  Level Albuquerque Center
12:05AM 36.1106 -103.8369 246° West 393 452 38,000  Level Albuquerque Center
12:07AM 36.0678 -103.9631 247° West 394 453 38,000  Level Albuquerque Center
12:08AM 36.0244 -104.0886 247° West 396 456 38,000  Level Albuquerque Center
12:09AM 35.9806 -104.2139 247° West 395 455 38,000  Level Albuquerque Center
12:10AM 35.9378 -104.3397 247° West 395 455 38,000  Level Albuquerque Center
12:11AM 35.8942 -104.4647 247° West 396 456 38,000  Level Albuquerque Center
12:12AM 35.8497 -104.5903 246° West 396 456 38,000  Level Albuquerque Center
12:13AM 35.8053 -104.7158 246° West 398 458 38,000  Level Albuquerque Center
12:14AM 35.7608 -104.8419 247° West 399 459 38,100  Climbing Albuquerque Center
12:15AM 35.7178 -104.9664 247° West 396 456 38,000 -60 Descending Albuquerque Center
12:16AM 35.6736 -105.0914 247° West 397 457 38,000 -180 Level Albuquerque Center
12:17AM 35.6506 -105.2469 260° West 396 456 37,700 -600 Descending Albuquerque Center
12:18AM 35.6486 -105.3778 269° West 386 444 36,800 -960 Descending Albuquerque Center
12:19AM 35.6450 -105.5094 268° West 382 440 35,800 -960 Descending Albuquerque Center
12:20AM 35.6386 -105.6250 266° West 397 457 34,900 -1,740 Descending Albuquerque Center
12:21AM 35.6325 -105.7931 267° West 413 475 32,300 -2,580 Descending Albuquerque Center
12:22AM 35.6278 -105.9386 268° West 419 482 29,700 -2,520 Descending Albuquerque Center
12:23AM 35.6214 -106.0786 267° West 415 478 27,200 -2,460 Descending Albuquerque Center
12:24AM 35.6172 -106.2178 268° West 410 472 24,800 -2,400 Descending Albuquerque Center
12:25AM 35.6122 -106.3542 267° West 405 466 22,400 -2,400 Descending Albuquerque Center
12:25AM 35.6072 -106.4114 264° West 395 455 21,400 -2,220 Descending Albuquerque Center
12:26AM 35.6056 -106.4853 268° West 392 451 20,200 -2,100 Descending Albuquerque Center
12:26AM 35.5997 -106.5389 262° West 376 433 19,300 -1,980 Descending Albuquerque Center
12:27AM 35.5692 -106.5917 235° Southwest 364 419 18,200 -2,100 Descending Albuquerque Center
12:27AM 35.5231 -106.6136 201° Southwest 338 389 17,200 -2,220 Descending Albuquerque Center
12:28AM 35.4800 -106.6347 202° Southwest 357 411 16,000 -2,400 Descending Albuquerque Center
12:28AM 35.4333 -106.6500 195° South 340 391 14,800 -2,400 Descending Albuquerque Center
12:29AM 35.3900 -106.6708 201° Southwest 344 396 13,600 -2,460 Descending Albuquerque Center
12:29AM 35.3500 -106.6975 209° Southwest 323 372 12,300 -2,400 Descending Albuquerque Center
12:30AM 35.3144 -106.7256 213° Southwest 322 371 11,200 -2,220 Descending Albuquerque Center
12:30AM 35.2783 -106.7525 211° Southwest 291 335 10,100 -2,220 Descending Albuquerque Center
12:31AM 35.2478 -106.7758 212° Southwest 300 345 9,000 -1,140 Descending Albuquerque Center
12:31AM 35.2178 -106.7967 210° Southwest 249 287 9,000 -420 Level Albuquerque Center
12:32AM 35.1917 -106.8197 216° Southwest 266 306 8,600 -900 Descending Albuquerque Center
12:32AM 35.1639 -106.8417 213° Southwest 235 270 8,100 -840 Descending Albuquerque Center
12:33AM 35.1367 -106.8650 215° Southwest 247 284 7,800 -420 Descending Albuquerque Center
12:33AM 35.1056 -106.8747 194° South 203 234 7,700 -300 Descending Albuquerque Center
12:34AM 35.0750 -106.8747 180° South 205 236 7,500 -240 Descending Albuquerque Center
12:34AM 35.0594 -106.8553 134° Southeast 183 211 7,500  Level Albuquerque Center
12:35AM 35.0483 -106.8247 114° Southeast 208 239 7,500  Level Albuquerque Center
12:35AM 35.0442 -106.7917 99° East 202 232 7,500  Level Albuquerque Center
12:36AM 35.0444 -106.7575 89° East 204 235 7,500 -480 Level Albuquerque Center
12:36AM 35.0450 -106.7344 88° East 184 212 7,100 -840 Descending Albuquerque Center
12:37AM 35.0444 -106.7042 91° East 178 205 6,700 -720 Descending Albuquerque Center
12:37AM 35.0450 -106.6853 88° East 133 153 6,400 -720 Descending Albuquerque Center
12:38AM 35.0444 -106.6600 92° East 145 167 6,000 -720 Descending Albuquerque Center
12:38AM 35.0436 -106.6414 93° East 121 139 5,700 -600 Descending Albuquerque Center
12:39AM 35.0444 -106.6172 88° East 133 153 5,400 -420 Descending Albuquerque Center
12:41AM 35.0402 -106.6092 90° East  Level Estimated